Time;durP1;ratioP1;P1;durP2;ratioP2;P2;SDS_P1;SDS_P2;PMS_P1;PMS_P2;Temp;Humidity;BMP_temperature;BMP_pressure;BME280_temperature;BME280_humidity;BME280_pressure;Samples;Min_cycle;Max_cycle;Signal;HPM_P1;HPM_P2
2024/01/19 00:01:38;;;;;;;57.10;32.20;;;;;;;-128.00;-1.00;-1.00;133651;1274;1004452;-80
2024/01/19 00:04:41;;;;;;;56.60;30.60;;;;;;;-128.00;-1.00;-1.00;133549;1274;1004597;-81
2024/01/19 00:07:43;;;;;;;53.00;30.00;;;;;;;-128.00;-1.00;-1.00;133375;1274;1004995;-81
2024/01/19 00:10:46;;;;;;;56.10;31.40;;;;;;;-128.00;-1.00;-1.00;133507;1274;1004446;-81
2024/01/19 00:13:48;;;;;;;53.70;29.70;;;;;;;-128.00;-1.00;-1.00;133572;1274;1004442;-81
2024/01/19 00:16:51;;;;;;;54.00;27.70;;;;;;;-128.00;-1.00;-1.00;133489;1274;1004315;-80
2024/01/19 00:19:53;;;;;;;54.70;30.20;;;;;;;-128.00;-1.00;-1.00;133582;1274;1005051;-81
2024/01/19 00:22:56;;;;;;;59.20;30.60;;;;;;;-128.00;-1.00;-1.00;133450;1274;1003995;-81
2024/01/19 00:25:58;;;;;;;61.40;33.20;;;;;;;-128.00;-1.00;-1.00;133616;1274;1003519;-81
2024/01/19 00:29:01;;;;;;;62.30;33.40;;;;;;;-128.00;-1.00;-1.00;133676;1274;1004070;-79
2024/01/19 00:32:03;;;;;;;64.80;34.10;;;;;;;-128.00;-1.00;-1.00;133593;1274;1003534;-80
2024/01/19 00:35:10;;;;;;;60.30;31.70;;;;;;;-128.00;-1.00;-1.00;133518;1274;1004743;-81
2024/01/19 00:38:13;;;;;;;60.90;33.20;;;;;;;-128.00;-1.00;-1.00;133501;1274;1004304;-80
2024/01/19 00:41:15;;;;;;;67.60;34.40;;;;;;;-128.00;-1.00;-1.00;133553;1274;1003518;-81
2024/01/19 00:44:18;;;;;;;62.90;33.70;;;;;;;-128.00;-1.00;-1.00;133628;1274;1004859;-81
2024/01/19 00:47:20;;;;;;;58.90;33.30;;;;;;;-128.00;-1.00;-1.00;133662;1274;1004793;-81
2024/01/19 00:50:23;;;;;;;58.90;31.70;;;;;;;-128.00;-1.00;-1.00;133542;1274;1004277;-80
2024/01/19 00:53:25;;;;;;;61.30;31.80;;;;;;;-128.00;-1.00;-1.00;133585;1274;1003810;-81
2024/01/19 00:56:28;;;;;;;60.50;31.40;;;;;;;-128.00;-1.00;-1.00;133582;1274;1004279;-80
2024/01/19 00:59:30;;;;;;;58.00;29.00;;;;;;;-128.00;-1.00;-1.00;133544;1274;1003838;-80
2024/01/19 01:02:33;;;;;;;57.10;29.80;;;;;;;-128.00;-1.00;-1.00;133417;1274;1004342;-80
2024/01/19 01:05:35;;;;;;;58.40;31.50;;;;;;;-128.00;-1.00;-1.00;133514;1274;1004411;-80
2024/01/19 01:08:38;;;;;;;57.30;32.60;;;;;;;-128.00;-1.00;-1.00;133592;1274;1004124;-80
2024/01/19 01:11:40;;;;;;;66.00;33.70;;;;;;;-128.00;-1.00;-1.00;133505;1274;1004489;-78
2024/01/19 01:14:43;;;;;;;58.00;28.70;;;;;;;-128.00;-1.00;-1.00;133466;1274;1004431;-77
2024/01/19 01:17:45;;;;;;;61.50;31.90;;;;;;;-128.00;-1.00;-1.00;133469;1274;1005092;-76
2024/01/19 01:20:47;;;;;;;61.60;31.00;;;;;;;-128.00;-1.00;-1.00;133539;1274;1004239;-79
2024/01/19 01:23:50;;;;;;;56.10;30.80;;;;;;;-128.00;-1.00;-1.00;133587;1274;1004356;-78
2024/01/19 01:26:52;;;;;;;64.30;32.10;;;;;;;-128.00;-1.00;-1.00;133567;1274;1004353;-78
2024/01/19 01:29:55;;;;;;;58.70;32.00;;;;;;;-128.00;-1.00;-1.00;133532;1274;1004100;-78
2024/01/19 01:32:57;;;;;;;61.90;31.30;;;;;;;-128.00;-1.00;-1.00;133586;1274;1004328;-79
2024/01/19 01:36:00;;;;;;;62.20;31.00;;;;;;;-128.00;-1.00;-1.00;133481;1274;1003922;-77
2024/01/19 01:39:02;;;;;;;67.50;32.50;;;;;;;-128.00;-1.00;-1.00;133376;1274;1004260;-78
2024/01/19 01:42:05;;;;;;;71.00;33.10;;;;;;;-128.00;-1.00;-1.00;133616;1274;1004383;-78
2024/01/19 01:45:07;;;;;;;67.10;32.70;;;;;;;-128.00;-1.00;-1.00;133368;1274;1004931;-79
2024/01/19 01:48:09;;;;;;;74.10;36.10;;;;;;;-128.00;-1.00;-1.00;133551;1274;1003446;-80
2024/01/19 01:51:12;;;;;;;75.80;34.70;;;;;;;-128.00;-1.00;-1.00;133431;1274;1003476;-79
2024/01/19 01:54:14;;;;;;;68.00;33.20;;;;;;;-128.00;-1.00;-1.00;133434;1274;1003653;-79
2024/01/19 01:57:19;;;;;;;74.70;35.50;;;;;;;-128.00;-1.00;-1.00;133630;1275;1004825;-80
2024/01/19 02:00:21;;;;;;;68.70;34.60;;;;;;;-128.00;-1.00;-1.00;133630;1274;1003587;-79
2024/01/19 02:03:23;;;;;;;75.00;36.50;;;;;;;-128.00;-1.00;-1.00;133603;1274;1003982;-81
2024/01/19 02:06:26;;;;;;;73.20;38.50;;;;;;;-128.00;-1.00;-1.00;133698;1274;1004695;-80
2024/01/19 02:09:28;;;;;;;82.00;40.10;;;;;;;-128.00;-1.00;-1.00;133553;1274;1004576;-78
2024/01/19 02:12:31;;;;;;;83.70;38.50;;;;;;;-128.00;-1.00;-1.00;133621;1274;1004276;-79
2024/01/19 02:15:34;;;;;;;88.70;41.10;;;;;;;-128.00;-1.00;-1.00;133567;1274;1004469;-80
2024/01/19 02:18:36;;;;;;;84.70;38.80;;;;;;;-128.00;-1.00;-1.00;133570;1274;1004003;-79
2024/01/19 02:21:39;;;;;;;75.60;36.40;;;;;;;-128.00;-1.00;-1.00;133565;1274;1004183;-80
2024/01/19 02:24:41;;;;;;;83.40;38.20;;;;;;;-128.00;-1.00;-1.00;133713;1274;1004214;-81
2024/01/19 02:27:44;;;;;;;82.00;38.30;;;;;;;-128.00;-1.00;-1.00;133633;1274;1004233;-81
2024/01/19 02:30:46;;;;;;;75.60;37.40;;;;;;;-128.00;-1.00;-1.00;133664;1274;1004558;-81
2024/01/19 02:33:49;;;;;;;70.70;34.70;;;;;;;-128.00;-1.00;-1.00;133664;1274;1004263;-80
2024/01/19 02:36:51;;;;;;;87.80;39.90;;;;;;;-128.00;-1.00;-1.00;133672;1274;1004215;-81
2024/01/19 02:39:54;;;;;;;74.30;37.00;;;;;;;-128.00;-1.00;-1.00;133628;1275;1003253;-79
2024/01/19 02:42:56;;;;;;;81.80;39.90;;;;;;;-128.00;-1.00;-1.00;133648;1275;1004067;-80
2024/01/19 02:45:59;;;;;;;86.00;39.70;;;;;;;-128.00;-1.00;-1.00;133617;1274;1004171;-81
2024/01/19 02:49:01;;;;;;;79.20;37.50;;;;;;;-128.00;-1.00;-1.00;133595;1275;1004570;-80
2024/01/19 02:52:04;;;;;;;82.90;39.90;;;;;;;-128.00;-1.00;-1.00;133661;1274;1004642;-81
2024/01/19 02:55:06;;;;;;;78.30;38.80;;;;;;;-128.00;-1.00;-1.00;133623;1275;1004064;-81
2024/01/19 02:58:08;;;;;;;71.90;36.70;;;;;;;-128.00;-1.00;-1.00;133680;1274;1003915;-81
2024/01/19 03:01:11;;;;;;;73.30;37.30;;;;;;;-128.00;-1.00;-1.00;133611;1274;1005105;-81
2024/01/19 03:04:13;;;;;;;73.90;36.80;;;;;;;-128.00;-1.00;-1.00;133635;1274;1004294;-81
2024/01/19 03:07:16;;;;;;;84.50;40.10;;;;;;;-128.00;-1.00;-1.00;133615;1274;1004828;-79
2024/01/19 03:10:18;;;;;;;85.60;40.70;;;;;;;-128.00;-1.00;-1.00;133592;1274;1004390;-80
2024/01/19 03:13:21;;;;;;;73.70;36.90;;;;;;;-128.00;-1.00;-1.00;133520;1274;1005051;-79
2024/01/19 03:16:24;;;;;;;79.90;38.00;;;;;;;-128.00;-1.00;-1.00;133678;1274;1004683;-80
2024/01/19 03:19:29;;;;;;;77.50;34.30;;;;;;;-128.00;-1.00;-1.00;133508;1274;1004320;-82
2024/01/19 03:22:31;;;;;;;76.10;34.40;;;;;;;-128.00;-1.00;-1.00;133477;1274;1004720;-82
2024/01/19 03:25:34;;;;;;;75.90;35.70;;;;;;;-128.00;-1.00;-1.00;133585;1274;1003798;-80
2024/01/19 03:28:36;;;;;;;63.00;32.50;;;;;;;-128.00;-1.00;-1.00;133557;1274;1004749;-81
2024/01/19 03:31:39;;;;;;;66.70;32.60;;;;;;;-128.00;-1.00;-1.00;133435;1274;1003805;-80
2024/01/19 03:34:41;;;;;;;69.30;34.50;;;;;;;-128.00;-1.00;-1.00;133686;1274;1005093;-80
2024/01/19 03:37:44;;;;;;;70.30;34.00;;;;;;;-128.00;-1.00;-1.00;133581;1274;1003867;-79
2024/01/19 03:40:47;;;;;;;74.90;34.70;;;;;;;-128.00;-1.00;-1.00;133571;1274;1004542;-80
2024/01/19 03:43:49;;;;;;;71.10;33.60;;;;;;;-128.00;-1.00;-1.00;133700;1274;1004629;-81
2024/01/19 03:46:52;;;;;;;63.20;29.50;;;;;;;-128.00;-1.00;-1.00;133508;1274;1004207;-79
2024/01/19 03:49:54;;;;;;;61.90;32.10;;;;;;;-128.00;-1.00;-1.00;133595;1274;1003847;-79
2024/01/19 03:52:56;;;;;;;68.50;32.10;;;;;;;-128.00;-1.00;-1.00;133542;1274;1004654;-79
2024/01/19 03:55:59;;;;;;;64.00;30.20;;;;;;;-128.00;-1.00;-1.00;133480;1274;1004965;-78
2024/01/19 03:59:01;;;;;;;71.20;33.40;;;;;;;-128.00;-1.00;-1.00;133614;1274;1004581;-80
2024/01/19 04:02:06;;;;;;;64.50;31.80;;;;;;;-128.00;-1.00;-1.00;133608;1274;1004657;-79
2024/01/19 04:05:09;;;;;;;66.00;32.60;;;;;;;-128.00;-1.00;-1.00;133480;1274;1004285;-79
2024/01/19 04:08:12;;;;;;;70.60;33.40;;;;;;;-128.00;-1.00;-1.00;133577;1274;1003380;-80
2024/01/19 04:11:14;;;;;;;62.60;31.00;;;;;;;-128.00;-1.00;-1.00;133815;1274;1003587;-80
2024/01/19 04:14:16;;;;;;;74.70;34.50;;;;;;;-128.00;-1.00;-1.00;133855;1275;1004617;-80
2024/01/19 04:17:19;;;;;;;54.30;26.80;;;;;;;-128.00;-1.00;-1.00;133803;1274;1003580;-80
2024/01/19 04:20:22;;;;;;;72.90;36.40;;;;;;;-128.00;-1.00;-1.00;133682;1274;1004220;-80
2024/01/19 04:23:24;;;;;;;67.00;32.80;;;;;;;-128.00;-1.00;-1.00;133497;1274;1004062;-78
2024/01/19 04:26:27;;;;;;;73.20;35.60;;;;;;;-128.00;-1.00;-1.00;133479;1276;1003736;-79
2024/01/19 04:29:30;;;;;;;69.60;33.60;;;;;;;-128.00;-1.00;-1.00;133459;1275;1004368;-79
2024/01/19 04:32:32;;;;;;;82.90;37.50;;;;;;;-128.00;-1.00;-1.00;133477;1275;1003459;-81
2024/01/19 04:35:37;;;;;;;59.40;30.30;;;;;;;-128.00;-1.00;-1.00;133443;1275;1003719;-81
2024/01/19 04:38:39;;;;;;;51.20;28.80;;;;;;;-128.00;-1.00;-1.00;133598;1274;1005068;-82
2024/01/19 04:41:42;;;;;;;50.90;26.80;;;;;;;-131.14;19.20;21852.17;134495;1275;1002159;-82
2024/01/19 04:44:44;;;;;;;46.00;27.00;;;;;;;-128.00;-1.00;-1.00;133882;1275;1002533;-81
2024/01/19 04:47:47;;;;;;;45.60;27.10;;;;;;;-128.00;-1.00;-1.00;133807;1274;1002218;-81
2024/01/19 04:50:49;;;;;;;39.80;23.90;;;;;;;-128.00;-1.00;-1.00;133850;1274;1002310;-79
2024/01/19 04:53:51;;;;;;;50.20;29.70;;;;;;;-128.00;-1.00;-1.00;133930;1274;1002419;-80
2024/01/19 04:56:54;;;;;;;51.40;29.50;;;;;;;-128.00;-1.00;-1.00;133849;1274;1002153;-81
2024/01/19 04:59:56;;;;;;;46.70;27.80;;;;;;;-128.00;-1.00;-1.00;133881;1274;1002228;-81
2024/01/19 05:03:00;;;;;;;45.20;27.00;;;;;;;-128.00;-1.00;-1.00;133978;1275;1002531;-83
2024/01/19 05:06:03;;;;;;;45.90;25.30;;;;;;;-128.00;-1.00;-1.00;133965;1275;1002396;-84
2024/01/19 05:09:06;;;;;;;23.20;15.60;;;;;;;-128.00;-1.00;-1.00;133890;1274;1002717;-83
2024/01/19 05:12:08;;;;;;;19.30;12.90;;;;;;;-128.00;-1.00;-1.00;133805;1274;1002399;-84
2024/01/19 05:15:23;;;;;;;19.50;13.50;;;;;;;-128.00;-1.00;-1.00;133928;1274;1002405;-80
2024/01/19 05:21:49;;;;;;;18.40;12.00;;;;;;;-128.00;-1.00;-1.00;133849;1274;1003011;-80
2024/01/19 05:24:55;;;;;;;29.30;14.10;;;;;;;-128.00;-1.00;-1.00;133824;1274;1002149;-79
2024/01/19 05:27:57;;;;;;;17.60;10.10;;;;;;;-128.00;-1.00;-1.00;133802;1274;1002993;-79
2024/01/19 05:31:00;;;;;;;17.10;10.20;;;;;;;-128.00;-1.00;-1.00;133709;1274;1002271;-79
2024/01/19 05:34:05;;;;;;;14.90;10.80;;;;;;;-128.00;-1.00;-1.00;133814;1274;1002722;-81
2024/01/19 05:37:11;;;;;;;;;;;;;;;-128.00;-1.00;-1.00;133813;1274;1002779;-79
2024/01/19 05:40:13;;;;;;;;;;;;;;;-128.00;-1.00;-1.00;133669;1274;1003025;-80
2024/01/19 05:43:16;;;;;;;12.00;8.80;;;;;;;-128.00;-1.00;-1.00;133568;1275;1004905;-80
2024/01/19 05:46:18;;;;;;;11.90;8.50;;;;;;;-134.28;39.40;43705.34;134586;1274;1004603;-81
2024/01/19 05:49:21;;;;;;;15.20;8.90;;;;;;;-128.00;-1.00;-1.00;133877;1275;1002350;-80
2024/01/19 05:52:23;;;;;;;12.10;8.10;;;;;;;-128.00;-1.00;-1.00;133866;1274;1002399;-81
2024/01/19 05:55:26;;;;;;;12.90;8.60;;;;;;;-128.00;-1.00;-1.00;133818;1274;1002654;-80
2024/01/19 05:58:28;;;;;;;11.80;7.80;;;;;;;-128.00;-1.00;-1.00;133837;1274;1002391;-79
2024/01/19 06:01:31;;;;;;;10.10;8.30;;;;;;;-128.00;-1.00;-1.00;133854;1275;1003081;-80
2024/01/19 06:04:34;;;;;;;12.60;9.30;;;;;;;-128.00;-1.00;-1.00;133850;1274;1002548;-79
2024/01/19 06:07:36;;;;;;;15.00;10.10;;;;;;;-128.00;-1.00;-1.00;133818;1274;1002071;-79
2024/01/19 06:10:39;;;;;;;16.30;10.40;;;;;;;-128.00;-1.00;-1.00;133921;1274;1002526;-78
2024/01/19 06:13:42;;;;;;;13.40;10.50;;;;;;;-128.00;-1.00;-1.00;133883;1274;1002678;-79
2024/01/19 06:16:44;;;;;;;10.00;8.30;;;;;;;-128.00;-1.00;-1.00;133886;1274;1002440;-79
2024/01/19 06:19:47;;;;;;;14.00;9.70;;;;;;;-128.00;-1.00;-1.00;133898;1275;1002512;-78
2024/01/19 06:22:49;;;;;;;13.80;10.50;;;;;;;-128.00;-1.00;-1.00;133867;1274;1002276;-79
2024/01/19 06:25:52;;;;;;;15.80;12.20;;;;;;;-128.00;-1.00;-1.00;133847;1274;1002526;-79
2024/01/19 06:28:54;;;;;;;19.70;13.90;;;;;;;-128.00;-1.00;-1.00;133851;1274;1002582;-79
2024/01/19 06:31:57;;;;;;;18.10;12.90;;;;;;;-128.00;-1.00;-1.00;133789;1275;1002241;-76
2024/01/19 06:34:59;;;;;;;23.70;14.60;;;;;;;-128.00;-1.00;-1.00;133821;1275;1002635;-78
2024/01/19 06:38:03;;;;;;;38.00;20.40;;;;;;;-128.00;-1.00;-1.00;133811;1274;1002015;-78
2024/01/19 06:41:05;;;;;;;36.90;20.50;;;;;;;-128.00;-1.00;-1.00;133784;1274;1002377;-79
2024/01/19 06:44:09;;;;;;;37.50;18.70;;;;;;;-128.00;-1.00;-1.00;133829;1274;1002529;-79
2024/01/19 06:47:11;;;;;;;32.90;18.40;;;;;;;-128.00;-1.00;-1.00;133906;1275;1002359;-79
2024/01/19 06:50:14;;;;;;;43.70;21.90;;;;;;;-128.00;-1.00;-1.00;133884;1274;1002442;-78
2024/01/19 06:53:17;;;;;;;35.10;19.00;;;;;;;-128.00;-1.00;-1.00;134015;1274;1002521;-78
2024/01/19 06:56:19;;;;;;;59.10;25.50;;;;;;;-128.00;-1.00;-1.00;133931;1275;1002404;-78
2024/01/19 06:59:21;;;;;;;51.10;24.10;;;;;;;-128.00;-1.00;-1.00;133859;1274;1002339;-79
2024/01/19 07:02:24;;;;;;;82.30;33.50;;;;;;;-128.00;-1.00;-1.00;133810;1274;1002318;-77
2024/01/19 07:05:26;;;;;;;52.40;24.10;;;;;;;-128.00;-1.00;-1.00;133830;1274;1002635;-79
2024/01/19 07:08:29;;;;;;;65.10;28.80;;;;;;;-128.00;-1.00;-1.00;133861;1275;1002629;-79
2024/01/19 07:11:31;;;;;;;70.60;31.20;;;;;;;-128.00;-1.00;-1.00;133905;1274;1002147;-80
2024/01/19 07:14:34;;;;;;;53.00;24.70;;;;;;;-128.00;-1.00;-1.00;133878;1274;1001615;-79
2024/01/19 07:17:36;;;;;;;71.00;32.20;;;;;;;-128.00;-1.00;-1.00;133848;1274;1002103;-78
2024/01/19 07:20:38;;;;;;;55.70;26.20;;;;;;;-128.00;-1.00;-1.00;133858;1275;1002369;-76
2024/01/19 07:23:41;;;;;;;65.30;28.50;;;;;;;-128.00;-1.00;-1.00;133826;1275;1002329;-76
2024/01/19 07:26:43;;;;;;;75.00;34.10;;;;;;;-128.00;-1.00;-1.00;133809;1274;1002676;-79
2024/01/19 07:29:46;;;;;;;79.50;34.20;;;;;;;-128.00;-1.00;-1.00;133812;1274;1002935;-78
2024/01/19 07:32:48;;;;;;;79.90;35.00;;;;;;;-128.00;-1.00;-1.00;133849;1274;1002461;-78
2024/01/19 07:35:51;;;;;;;80.90;38.90;;;;;;;-128.00;-1.00;-1.00;133868;1274;1002371;-78
2024/01/19 07:38:54;;;;;;;69.90;32.30;;;;;;;-128.00;-1.00;-1.00;133832;1275;1002495;-79
2024/01/19 07:41:56;;;;;;;51.00;27.20;;;;;;;-128.00;-1.00;-1.00;133592;1274;1005694;-79
2024/01/19 07:44:59;;;;;;;47.80;27.50;;;;;;;-128.00;-1.00;-1.00;133541;1274;1003647;-79
2024/01/19 07:48:01;;;;;;;48.00;25.80;;;;;;;-128.00;-1.00;-1.00;133579;1274;1004442;-77
2024/01/19 07:51:04;;;;;;;43.20;24.40;;;;;;;-128.00;-1.00;-1.00;133536;1274;1004994;-75
2024/01/19 07:54:06;;;;;;;48.60;25.30;;;;;;;-128.00;-1.00;-1.00;133537;1274;1004773;-79
2024/01/19 07:57:09;;;;;;;50.90;27.80;;;;;;;-128.00;-1.00;-1.00;133562;1275;1003811;-79
2024/01/19 08:00:12;;;;;;;60.40;29.50;;;;;;;-128.00;-1.00;-1.00;133582;1274;1003560;-79
2024/01/19 08:03:16;;;;;;;62.80;30.50;;;;;;;-128.00;-1.00;-1.00;133592;1274;1005265;-79
2024/01/19 08:06:18;;;;;;;61.90;32.50;;;;;;;-128.00;-1.00;-1.00;133591;1274;1005216;-80
2024/01/19 08:09:21;;;;;;;65.60;32.60;;;;;;;-128.00;-1.00;-1.00;133586;1274;1004413;-78
2024/01/19 08:12:23;;;;;;;73.10;34.20;;;;;;;-128.00;-1.00;-1.00;133576;1274;1003904;-80
2024/01/19 08:15:26;;;;;;;73.50;36.90;;;;;;;-128.00;-1.00;-1.00;133549;1274;1004179;-80
2024/01/19 08:18:33;;;;;;;82.80;37.40;;;;;;;-128.00;-1.00;-1.00;133590;1274;1004157;-80
2024/01/19 08:21:36;;;;;;;87.40;43.40;;;;;;;-128.00;-1.00;-1.00;133485;1274;1004186;-80
2024/01/19 08:24:38;;;;;;;85.70;41.80;;;;;;;-128.00;-1.00;-1.00;133532;1274;1004233;-80
2024/01/19 08:27:41;;;;;;;75.20;38.10;;;;;;;-128.00;-1.00;-1.00;133547;1274;1005110;-80
2024/01/19 08:30:43;;;;;;;58.00;32.40;;;;;;;-128.00;-1.00;-1.00;133527;1274;1004328;-78
2024/01/19 08:33:46;;;;;;;55.80;30.00;;;;;;;-128.00;-1.00;-1.00;133553;1274;1004105;-80
2024/01/19 08:36:48;;;;;;;69.50;34.70;;;;;;;-128.00;-1.00;-1.00;133541;1274;1003690;-79
2024/01/19 08:39:51;;;;;;;89.10;41.50;;;;;;;-128.00;-1.00;-1.00;133528;1274;1004326;-80
2024/01/19 08:42:53;;;;;;;84.00;39.00;;;;;;;-128.00;-1.00;-1.00;133558;1274;1004886;-79
2024/01/19 08:45:56;;;;;;;72.70;36.60;;;;;;;-128.00;-1.00;-1.00;133556;1274;1004336;-79
2024/01/19 08:49:00;;;;;;;82.10;38.70;;;;;;;-128.00;-1.00;-1.00;133587;1274;1004005;-82
2024/01/19 08:52:03;;;;;;;73.00;35.50;;;;;;;-128.00;-1.00;-1.00;133610;1274;1003951;-80
2024/01/19 08:55:05;;;;;;;62.80;30.80;;;;;;;-128.00;-1.00;-1.00;133595;1274;1003985;-79
2024/01/19 08:58:08;;;;;;;77.80;35.60;;;;;;;-128.00;-1.00;-1.00;133625;1274;1003723;-81
2024/01/19 09:01:10;;;;;;;83.30;41.00;;;;;;;-128.00;-1.00;-1.00;133880;1274;1003926;-80
2024/01/19 09:04:13;;;;;;;78.20;37.50;;;;;;;-128.00;-1.00;-1.00;133551;1274;1004088;-79
2024/01/19 09:07:15;;;;;;;77.30;37.00;;;;;;;-128.00;-1.00;-1.00;133760;1274;1004463;-81
2024/01/19 09:10:18;;;;;;;68.70;33.80;;;;;;;-128.00;-1.00;-1.00;133689;1274;1003827;-79
2024/01/19 09:13:20;;;;;;;66.90;32.70;;;;;;;-128.00;-1.00;-1.00;133561;1274;1005259;-80
2024/01/19 09:49:03;;;;;;;37.80;21.30;;;;;;;;;;133023;1303;544979;-79
2024/01/19 09:52:05;;;;;;;44.20;22.90;;;;;;;;;;136772;1285;22351;-79
2024/01/19 09:55:08;;;;;;;47.30;23.90;;;;;;;;;;136772;1284;22607;-79
2024/01/19 09:58:10;;;;;;;45.60;24.00;;;;;;;;;;136760;1284;22553;-79
2024/01/19 10:01:13;;;;;;;46.60;26.00;;;;;;;;;;137705;1270;173595;-78
2024/01/19 10:04:15;;;;;;;57.70;24.90;;;;;;;;;;138089;1270;22118;-79
2024/01/19 10:07:18;;;;;;;57.80;26.00;;;;;;;;;;138084;1270;22894;-80
2024/01/19 10:10:20;;;;;;;47.70;23.00;;;;;;;;;;138076;1270;22184;-80
2024/01/19 10:13:22;;;;;;;49.00;22.10;;;;;;;;;;138161;1270;22146;-79
2024/01/19 10:16:25;;;;;;;45.90;22.80;;;;;;;;;;138088;1270;22805;-80
2024/01/19 10:19:27;;;;;;;39.10;20.20;;;;;;;;;;138125;1270;22685;-81
2024/01/19 10:22:30;;;;;;;35.50;20.90;;;;;;;;;;138110;1270;22196;-80
2024/01/19 10:25:34;;;;;;;31.60;19.70;;;;;;;;;;138085;1270;22525;-79
2024/01/19 10:28:37;;;;;;;39.10;20.70;;;;;;;;;;138122;1270;22344;-81
2024/01/19 10:31:39;;;;;;;41.20;21.60;;;;;;;;;;138013;1270;22598;-81
2024/01/19 10:34:42;;;;;;;40.10;21.60;;;;;;;;;;138119;1270;22264;-81
2024/01/19 10:37:45;;;;;;;40.60;22.90;;;;;;;;;;138141;1270;22577;-80
2024/01/19 10:40:47;;;;;;;33.40;19.80;;;;;;;;;;138127;1270;23049;-80
2024/01/19 10:43:49;;;;;;;39.30;21.60;;;;;;;;;;138114;1256;22153;-79
2024/01/19 10:46:53;;;;;;;35.20;22.00;;;;;;;;;;138095;1270;22157;-79
2024/01/19 10:49:55;;;;;;;35.90;19.80;;;;;;;;;;138074;1270;22162;-79
2024/01/19 10:53:00;;;;;;;36.60;21.80;;;;;;;;;;138101;1270;23019;-80
2024/01/19 10:56:04;;;;;;;49.60;20.80;;;;;;;;;;138050;1270;22195;-79
2024/01/19 10:59:06;;;;;;;38.50;21.50;;;;;;;;;;138029;1270;22237;-79
2024/01/19 11:02:08;;;;;;;37.50;21.00;;;;;;;;;;138079;1271;22286;-80
2024/01/19 11:05:11;;;;;;;34.50;20.40;;;;;;;;;;138099;1271;22179;-81
2024/01/19 11:08:13;;;;;;;41.40;21.80;;;;;;;;;;138060;1271;22227;-81
2024/01/19 11:11:16;;;;;;;42.30;22.80;;;;;;;;;;138113;1271;22684;-81
2024/01/19 11:14:19;;;;;;;38.70;20.70;;;;;;;;;;137823;1271;22396;-81
2024/01/19 11:17:22;;;;;;;39.40;21.00;;;;;;;;;;138055;1270;22134;-80
2024/01/19 11:20:25;;;;;;;44.70;19.50;;;;;;;;;;138066;1271;22102;-82
2024/01/19 11:23:27;;;;;;;42.60;19.40;;;;;;;;;;138048;1271;22285;-80
2024/01/19 11:26:29;;;;;;;39.90;22.00;;;;;;;;;;138040;1271;22280;-81
2024/01/19 11:29:32;;;;;;;40.30;20.10;;;;;;;;;;137900;1271;22608;-83
2024/01/19 11:32:35;;;;;;;39.50;21.50;;;;;;;;;;138073;1271;22264;-81
2024/01/19 11:35:37;;;;;;;39.10;21.50;;;;;;;;;;138030;1271;22233;-81
2024/01/19 11:38:40;;;;;;;45.40;22.20;;;;;;;;;;138052;1271;22176;-81
2024/01/19 11:41:44;;;;;;;37.90;20.90;;;;;;;;;;138050;1270;22651;-81
2024/01/19 11:44:46;;;;;;;42.10;22.60;;;;;;;;;;137688;1271;22202;-81
2024/01/19 11:47:49;;;;;;;38.80;19.90;;;;;;;;;;137501;1271;22724;-78
2024/01/19 11:50:51;;;;;;;37.10;19.70;;;;;;;;;;138197;1270;22310;-80
2024/01/19 11:53:53;;;;;;;37.50;19.80;;;;;;;;;;137763;1271;23074;-78
2024/01/19 11:56:56;;;;;;;47.80;21.20;;;;;;;;;;138154;1271;22256;-79
2024/01/19 11:59:58;;;;;;;35.00;18.80;;;;;;;;;;138108;1271;22055;-80
2024/01/19 12:03:01;;;;;;;30.90;18.50;;;;;;;;;;138039;1270;22156;-80
2024/01/19 12:06:04;;;;;;;36.50;20.90;;;;;;;;;;138033;1270;22974;-83
2024/01/19 12:09:07;;;;;;;45.70;21.60;;;;;;;;;;138063;1270;22170;-81
2024/01/19 12:12:10;;;;;;;38.70;22.60;;;;;;;;;;138037;1270;22312;-81
2024/01/19 12:15:12;;;;;;;43.80;23.40;;;;;;;;;;137788;1270;22208;-81
2024/01/19 12:18:15;;;;;;;39.30;20.80;;;;;;;;;;138017;1271;22846;-80
2024/01/19 12:21:17;;;;;;;40.00;23.10;;;;;;;;;;138027;1271;22148;-81
2024/01/19 12:24:19;;;;;;;36.00;20.10;;;;;;;;;;137984;1271;22594;-80
2024/01/19 12:27:24;;;;;;;;;;;;;;;;;;138025;1270;23124;-80
2024/01/19 12:30:27;;;;;;;50.40;25.60;;;;;;;;;;137955;1270;22618;-80
2024/01/19 12:33:30;;;;;;;55.70;27.80;;;;;;;;;;137969;1270;22320;-80
2024/01/19 12:36:33;;;;;;;71.80;30.70;;;;;;;;;;137959;1271;22191;-80
2024/01/19 12:39:35;;;;;;;68.60;31.60;;;;;;;;;;137988;1270;22070;-80
2024/01/19 12:42:38;;;;;;;60.10;28.80;;;;;;;;;;138000;1271;22825;-82
2024/01/19 12:45:40;;;;;;;65.40;28.50;;;;;;;;;;138012;1271;22190;-81
2024/01/19 12:48:43;;;;;;;56.20;26.90;;;;;;;;;;138010;1271;22207;-81
2024/01/19 12:51:46;;;;;;;44.70;22.40;;;;;;;;;;138019;1270;22111;-81
2024/01/19 12:54:48;;;;;;;36.20;21.00;;;;;;;;;;137989;1271;22191;-82
2024/01/19 12:57:51;;;;;;;39.10;20.90;;;;;;;;;;137952;1271;22206;-81
2024/01/19 13:00:53;;;;;;;39.60;20.10;;;;;;;;;;137956;1258;22399;-81
2024/01/19 13:03:55;;;;;;;33.70;18.70;;;;;;;;;;137986;1270;22319;-81
2024/01/19 13:06:58;;;;;;;44.80;21.20;;;;;;;;;;137946;1271;22255;-80
2024/01/19 13:10:00;;;;;;;42.90;22.40;;;;;;;;;;137975;1271;22168;-81
2024/01/19 13:13:03;;;;;;;42.10;19.80;;;;;;;;;;137938;1271;22321;-83
2024/01/19 13:16:05;;;;;;;31.80;18.40;;;;;;;;;;137928;1271;22391;-82
2024/01/19 13:19:10;;;;;;;45.50;21.00;;;;;;;;;;137969;1270;22160;-82
2024/01/19 13:22:13;;;;;;;46.30;21.60;;;;;;;;;;137902;1270;22301;-82
2024/01/19 13:25:15;;;;;;;42.40;19.20;;;;;;;;;;137877;1270;23101;-83
2024/01/19 13:28:18;;;;;;;45.70;19.60;;;;;;;;;;137928;1270;22275;-83
2024/01/19 13:31:20;;;;;;;32.30;16.90;;;;;;;;;;137843;1271;22181;-83
2024/01/19 13:34:26;;;;;;;34.90;17.00;;;;;;;;;;137928;1271;22624;-80
2024/01/19 13:37:28;;;;;;;31.40;17.80;;;;;;;;;;137967;1270;22190;-83
2024/01/19 13:40:31;;;;;;;34.20;16.50;;;;;;;;;;137934;1271;22787;-82
2024/01/19 13:43:33;;;;;;;37.40;17.10;;;;;;;;;;137964;1270;22182;-83
2024/01/19 13:46:36;;;;;;;30.00;17.20;;;;;;;;;;137647;1270;22713;-83
2024/01/19 13:49:38;;;;;;;34.40;17.20;;;;;;;;;;137902;1270;22286;-82
2024/01/19 13:52:41;;;;;;;29.60;16.00;;;;;;;;;;137975;1271;22122;-82
2024/01/19 13:55:44;;;;;;;25.90;14.90;;;;;;;;;;137941;1271;22219;-82
2024/01/19 13:58:46;;;;;;;38.40;18.10;;;;;;;;;;137982;1270;22197;-83
2024/01/19 14:01:49;;;;;;;39.40;19.20;;;;;;;;;;137712;1270;22235;-83
2024/01/19 14:04:51;;;;;;;34.00;17.20;;;;;;;;;;138147;1271;22276;-81
2024/01/19 14:07:54;;;;;;;38.50;17.00;;;;;;;;;;138099;1271;22208;-82
2024/01/19 14:10:56;;;;;;;31.00;16.10;;;;;;;;;;138107;1271;22217;-84
2024/01/19 14:13:59;;;;;;;32.00;17.20;;;;;;;;;;138051;1271;22173;-83
2024/01/19 14:17:01;;;;;;;32.20;15.30;;;;;;;;;;138005;1271;22381;-84
2024/01/19 14:20:05;;;;;;;29.00;14.40;;;;;;;;;;137978;1270;22314;-83
2024/01/19 14:23:08;;;;;;;34.40;17.00;;;;;;;;;;138012;1271;22307;-82
2024/01/19 14:26:10;;;;;;;37.30;16.80;;;;;;;;;;137993;1270;22170;-82
2024/01/19 14:29:12;;;;;;;31.30;16.30;;;;;;;;;;137949;1271;22212;-82
2024/01/19 14:32:17;;;;;;;32.80;17.20;;;;;;;;;;138019;1270;22726;-82
2024/01/19 14:35:19;;;;;;;32.80;17.50;;;;;;;;;;137977;1270;22216;-82
2024/01/19 14:38:22;;;;;;;33.00;16.80;;;;;;;;;;137962;1271;22132;-80
2024/01/19 14:41:24;;;;;;;32.80;15.90;;;;;;;;;;138011;1270;22318;-83
2024/01/19 14:44:27;;;;;;;30.50;15.80;;;;;;;;;;138032;1270;22325;-82
2024/01/19 14:47:29;;;;;;;31.00;16.40;;;;;;;;;;138050;1270;22167;-82
2024/01/19 14:50:32;;;;;;;38.90;18.30;;;;;;;;;;137948;1270;22174;-80
2024/01/19 14:53:34;;;;;;;36.30;17.50;;;;;;;;;;138003;1270;22154;-78
2024/01/19 14:56:37;;;;;;;46.10;19.50;;;;;;;;;;138001;1271;22211;-81
2024/01/19 14:59:39;;;;;;;43.30;20.80;;;;;;;;;;137979;1270;22170;-80
2024/01/19 15:02:41;;;;;;;43.60;19.70;;;;;;;;;;138004;1270;22309;-79
2024/01/19 15:05:44;;;;;;;49.40;22.50;;;;;;;;;;138047;1270;22394;-80
2024/01/19 15:08:46;;;;;;;44.40;18.90;;;;;;;;;;138099;1270;22137;-80
2024/01/19 15:11:49;;;;;;;40.90;19.00;;;;;;;;;;138068;1270;22190;-81
2024/01/19 15:14:51;;;;;;;35.60;17.60;;;;;;;;;;137918;1270;22513;-82
2024/01/19 15:17:54;;;;;;;38.90;17.70;;;;;;;;;;137941;1271;22224;-79
2024/01/19 15:20:56;;;;;;;39.10;17.70;;;;;;;;;;138014;1270;22650;-81
2024/01/19 15:23:58;;;;;;;41.80;18.80;;;;;;;;;;138069;1271;22402;-80
2024/01/19 15:27:01;;;;;;;41.20;20.20;;;;;;;;;;138062;1270;22303;-81
2024/01/19 15:30:03;;;;;;;42.90;18.60;;;;;;;;;;138045;1270;22235;-80
2024/01/19 15:33:06;;;;;;;44.20;17.60;;;;;;;;;;138057;1271;22302;-80